sensor_id;sensor_type;location;lat;lon;timestamp;temperature;humidity
44433;DHT22;30136;50.600;4.608;2022-09-17T00:00:37;24.50;57.40
44433;DHT22;30136;50.600;4.608;2022-09-17T00:01:39;24.50;57.40
44433;DHT22;30136;50.600;4.608;2022-09-17T00:02:40;24.50;57.40
44433;DHT22;30136;50.600;4.608;2022-09-17T00:03:48;24.50;57.50
44433;DHT22;30136;50.600;4.608;2022-09-17T00:04:53;24.50;57.50
44433;DHT22;30136;50.600;4.608;2022-09-17T00:06:01;24.50;57.60
44433;DHT22;30136;50.600;4.608;2022-09-17T00:07:04;24.50;57.50
44433;DHT22;30136;50.600;4.608;2022-09-17T00:08:06;24.50;57.60
44433;DHT22;30136;50.600;4.608;2022-09-17T00:09:09;24.50;57.50
44433;DHT22;30136;50.600;4.608;2022-09-17T00:10:10;24.50;57.40
44433;DHT22;30136;50.600;4.608;2022-09-17T00:11:17;24.50;57.50
44433;DHT22;30136;50.600;4.608;2022-09-17T00:12:20;24.50;58.00
44433;DHT22;30136;50.600;4.608;2022-09-17T00:13:21;24.50;57.50
44433;DHT22;30136;50.600;4.608;2022-09-17T00:14:22;24.50;57.50
44433;DHT22;30136;50.600;4.608;2022-09-17T00:15:23;24.50;57.50
44433;DHT22;30136;50.600;4.608;2022-09-17T00:16:36;24.50;57.40
44433;DHT22;30136;50.600;4.608;2022-09-17T00:17:38;24.50;57.40
44433;DHT22;30136;50.600;4.608;2022-09-17T00:18:40;24.50;57.50
44433;DHT22;30136;50.600;4.608;2022-09-17T00:19:41;24.50;57.40
44433;DHT22;30136;50.600;4.608;2022-09-17T00:20:44;24.50;57.40
44433;DHT22;30136;50.600;4.608;2022-09-17T00:21:46;24.50;57.40
44433;DHT22;30136;50.600;4.608;2022-09-17T00:22:47;24.50;57.50
44433;DHT22;30136;50.600;4.608;2022-09-17T00:23:51;24.50;57.50
44433;DHT22;30136;50.600;4.608;2022-09-17T00:24:53;24.50;57.50
44433;DHT22;30136;50.600;4.608;2022-09-17T00:25:54;24.50;57.40
44433;DHT22;30136;50.600;4.608;2022-09-17T00:26:55;24.50;57.50
44433;DHT22;30136;50.600;4.608;2022-09-17T00:27:56;24.50;57.50
44433;DHT22;30136;50.600;4.608;2022-09-17T00:28:58;24.50;57.50
44433;DHT22;30136;50.600;4.608;2022-09-17T00:29:59;24.50;57.50
44433;DHT22;30136;50.600;4.608;2022-09-17T00:31:06;24.50;57.50
44433;DHT22;30136;50.600;4.608;2022-09-17T00:32:08;24.50;57.50
44433;DHT22;30136;50.600;4.608;2022-09-17T00:33:11;24.50;57.60
44433;DHT22;30136;50.600;4.608;2022-09-17T00:34:13;24.50;57.60
44433;DHT22;30136;50.600;4.608;2022-09-17T00:35:14;24.50;57.60
44433;DHT22;30136;50.600;4.608;2022-09-17T00:36:15;24.50;57.60
44433;DHT22;30136;50.600;4.608;2022-09-17T00:37:20;24.50;57.60
44433;DHT22;30136;50.600;4.608;2022-09-17T00:38:21;24.50;57.50
44433;DHT22;30136;50.600;4.608;2022-09-17T00:39:22;24.50;57.60
44433;DHT22;30136;50.600;4.608;2022-09-17T00:40:23;24.50;57.50
44433;DHT22;30136;50.600;4.608;2022-09-17T00:41:27;24.50;57.60
44433;DHT22;30136;50.600;4.608;2022-09-17T00:42:29;24.50;57.60
44433;DHT22;30136;50.600;4.608;2022-09-17T00:43:43;24.50;57.60
44433;DHT22;30136;50.600;4.608;2022-09-17T00:44:52;24.50;57.60
44433;DHT22;30136;50.600;4.608;2022-09-17T00:45:54;24.50;57.60
44433;DHT22;30136;50.600;4.608;2022-09-17T00:46:55;24.50;57.60
44433;DHT22;30136;50.600;4.608;2022-09-17T00:48:03;24.50;57.60
44433;DHT22;30136;50.600;4.608;2022-09-17T00:49:18;24.50;57.60
44433;DHT22;30136;50.600;4.608;2022-09-17T00:50:27;24.50;57.60
44433;DHT22;30136;50.600;4.608;2022-09-17T00:51:40;24.50;57.60
44433;DHT22;30136;50.600;4.608;2022-09-17T00:52:50;24.40;57.60
44433;DHT22;30136;50.600;4.608;2022-09-17T00:53:56;24.40;57.60
44433;DHT22;30136;50.600;4.608;2022-09-17T00:55:30;24.50;57.70
44433;DHT22;30136;50.600;4.608;2022-09-17T00:56:34;24.50;57.70
44433;DHT22;30136;50.600;4.608;2022-09-17T00:57:37;24.50;57.70
44433;DHT22;30136;50.600;4.608;2022-09-17T00:58:39;24.40;57.70
44433;DHT22;30136;50.600;4.608;2022-09-17T00:59:40;24.50;57.70
44433;DHT22;30136;50.600;4.608;2022-09-17T01:00:41;24.40;57.70
44433;DHT22;30136;50.600;4.608;2022-09-17T01:01:42;24.50;57.70
44433;DHT22;30136;50.600;4.608;2022-09-17T01:02:43;24.40;57.70
44433;DHT22;30136;50.600;4.608;2022-09-17T01:03:44;24.40;57.70
44433;DHT22;30136;50.600;4.608;2022-09-17T01:04:45;24.40;57.70
44433;DHT22;30136;50.600;4.608;2022-09-17T01:05:53;24.40;57.70
44433;DHT22;30136;50.600;4.608;2022-09-17T01:07:40;24.40;57.70
44433;DHT22;30136;50.600;4.608;2022-09-17T01:12:48;24.40;57.80
44433;DHT22;30136;50.600;4.608;2022-09-17T01:25:35;24.40;57.80
44433;DHT22;30136;50.600;4.608;2022-09-17T01:26:31;24.40;57.80
44433;DHT22;30136;50.600;4.608;2022-09-17T01:32:40;24.40;57.80
44433;DHT22;30136;50.600;4.608;2022-09-17T01:37:11;24.40;57.90
44433;DHT22;30136;50.600;4.608;2022-09-17T01:40:07;24.40;57.90
44433;DHT22;30136;50.600;4.608;2022-09-17T01:42:03;24.40;57.90
44433;DHT22;30136;50.600;4.608;2022-09-17T01:45:20;24.40;58.00
44433;DHT22;30136;50.600;4.608;2022-09-17T01:46:45;24.40;58.20
44433;DHT22;30136;50.600;4.608;2022-09-17T01:47:53;24.40;58.00
44433;DHT22;30136;50.600;4.608;2022-09-17T01:49:00;24.40;58.30
44433;DHT22;30136;50.600;4.608;2022-09-17T01:50:08;24.40;58.00
44433;DHT22;30136;50.600;4.608;2022-09-17T01:51:15;24.40;58.00
44433;DHT22;30136;50.600;4.608;2022-09-17T01:52:19;24.30;58.00
44433;DHT22;30136;50.600;4.608;2022-09-17T01:53:25;24.40;58.20
44433;DHT22;30136;50.600;4.608;2022-09-17T01:54:39;24.40;58.30
44433;DHT22;30136;50.600;4.608;2022-09-17T01:55:45;24.30;58.20
44433;DHT22;30136;50.600;4.608;2022-09-17T01:56:57;24.40;58.20
44433;DHT22;30136;50.600;4.608;2022-09-17T01:58:09;24.40;58.20
44433;DHT22;30136;50.600;4.608;2022-09-17T01:59:33;24.40;58.20
44433;DHT22;30136;50.600;4.608;2022-09-17T02:00:59;24.40;58.20
44433;DHT22;30136;50.600;4.608;2022-09-17T02:02:10;24.30;58.20
44433;DHT22;30136;50.600;4.608;2022-09-17T02:03:27;24.30;58.20
44433;DHT22;30136;50.600;4.608;2022-09-17T02:04:35;24.30;58.20
44433;DHT22;30136;50.600;4.608;2022-09-17T02:05:53;24.30;58.20
44433;DHT22;30136;50.600;4.608;2022-09-17T02:07:04;24.30;58.30
44433;DHT22;30136;50.600;4.608;2022-09-17T02:08:23;24.40;58.30
44433;DHT22;30136;50.600;4.608;2022-09-17T02:09:33;24.40;58.30
44433;DHT22;30136;50.600;4.608;2022-09-17T02:10:48;24.40;58.20
44433;DHT22;30136;50.600;4.608;2022-09-17T02:11:55;24.40;58.20
44433;DHT22;30136;50.600;4.608;2022-09-17T02:13:08;24.40;58.10
44433;DHT22;30136;50.600;4.608;2022-09-17T02:14:17;24.40;58.00
44433;DHT22;30136;50.600;4.608;2022-09-17T02:15:26;24.30;58.00
44433;DHT22;30136;50.600;4.608;2022-09-17T02:16:33;24.30;57.90
44433;DHT22;30136;50.600;4.608;2022-09-17T02:17:48;24.30;57.90
44433;DHT22;30136;50.600;4.608;2022-09-17T02:20:08;24.30;57.90
44433;DHT22;30136;50.600;4.608;2022-09-17T02:21:19;24.40;58.00
44433;DHT22;30136;50.600;4.608;2022-09-17T02:22:42;24.40;58.00
44433;DHT22;30136;50.600;4.608;2022-09-17T02:24:01;24.30;58.00
44433;DHT22;30136;50.600;4.608;2022-09-17T02:26:46;24.40;58.60
44433;DHT22;30136;50.600;4.608;2022-09-17T02:29:08;24.40;58.20
44433;DHT22;30136;50.600;4.608;2022-09-17T02:30:14;24.40;58.80
44433;DHT22;30136;50.600;4.608;2022-09-17T02:31:15;24.30;58.20
44433;DHT22;30136;50.600;4.608;2022-09-17T02:32:16;24.30;58.20
44433;DHT22;30136;50.600;4.608;2022-09-17T02:33:18;24.30;58.20
44433;DHT22;30136;50.600;4.608;2022-09-17T02:34:20;24.30;58.20
44433;DHT22;30136;50.600;4.608;2022-09-17T02:35:21;24.30;58.30
44433;DHT22;30136;50.600;4.608;2022-09-17T02:36:22;24.30;58.10
44433;DHT22;30136;50.600;4.608;2022-09-17T02:37:24;24.30;58.20
44433;DHT22;30136;50.600;4.608;2022-09-17T02:38:27;24.30;58.20
44433;DHT22;30136;50.600;4.608;2022-09-17T02:39:30;24.30;58.20
44433;DHT22;30136;50.600;4.608;2022-09-17T02:40:37;24.30;58.20
44433;DHT22;30136;50.600;4.608;2022-09-17T02:41:45;24.30;58.20
44433;DHT22;30136;50.600;4.608;2022-09-17T02:42:53;24.30;58.10
44433;DHT22;30136;50.600;4.608;2022-09-17T02:44:37;24.30;58.20
44433;DHT22;30136;50.600;4.608;2022-09-17T02:55:02;24.30;58.00
44433;DHT22;30136;50.600;4.608;2022-09-17T02:56:35;24.30;58.00
44433;DHT22;30136;50.600;4.608;2022-09-17T03:00:43;24.30;58.60
44433;DHT22;30136;50.600;4.608;2022-09-17T03:02:10;24.30;58.10
44433;DHT22;30136;50.600;4.608;2022-09-17T03:03:20;24.30;58.20
44433;DHT22;30136;50.600;4.608;2022-09-17T03:04:30;24.30;58.00
44433;DHT22;30136;50.600;4.608;2022-09-17T03:05:32;24.30;58.10
44433;DHT22;30136;50.600;4.608;2022-09-17T03:06:35;24.30;58.10
44433;DHT22;30136;50.600;4.608;2022-09-17T03:07:38;24.30;58.10
44433;DHT22;30136;50.600;4.608;2022-09-17T03:08:40;24.30;58.10
44433;DHT22;30136;50.600;4.608;2022-09-17T03:09:41;24.30;58.10
44433;DHT22;30136;50.600;4.608;2022-09-17T03:10:43;24.30;58.20
44433;DHT22;30136;50.600;4.608;2022-09-17T03:11:44;24.30;58.20
44433;DHT22;30136;50.600;4.608;2022-09-17T03:12:45;24.20;58.20
44433;DHT22;30136;50.600;4.608;2022-09-17T03:13:46;24.30;58.30
44433;DHT22;30136;50.600;4.608;2022-09-17T03:14:47;24.30;58.30
44433;DHT22;30136;50.600;4.608;2022-09-17T03:15:48;24.30;58.30
44433;DHT22;30136;50.600;4.608;2022-09-17T03:16:49;24.30;58.30
44433;DHT22;30136;50.600;4.608;2022-09-17T03:17:49;24.30;58.20
44433;DHT22;30136;50.600;4.608;2022-09-17T03:18:50;24.30;58.30
44433;DHT22;30136;50.600;4.608;2022-09-17T03:19:51;24.30;58.30
44433;DHT22;30136;50.600;4.608;2022-09-17T03:20:52;24.30;58.20
44433;DHT22;30136;50.600;4.608;2022-09-17T03:21:53;24.30;58.30
44433;DHT22;30136;50.600;4.608;2022-09-17T03:22:54;24.30;58.30
44433;DHT22;30136;50.600;4.608;2022-09-17T03:23:55;24.30;58.30
44433;DHT22;30136;50.600;4.608;2022-09-17T03:24:59;24.20;58.20
44433;DHT22;30136;50.600;4.608;2022-09-17T03:26:00;24.20;58.40
44433;DHT22;30136;50.600;4.608;2022-09-17T03:27:00;24.20;58.20
44433;DHT22;30136;50.600;4.608;2022-09-17T03:28:01;24.20;58.30
44433;DHT22;30136;50.600;4.608;2022-09-17T03:29:03;24.20;58.30
44433;DHT22;30136;50.600;4.608;2022-09-17T03:30:04;24.20;58.40
44433;DHT22;30136;50.600;4.608;2022-09-17T03:31:06;24.20;58.30
44433;DHT22;30136;50.600;4.608;2022-09-17T03:32:07;24.20;58.40
44433;DHT22;30136;50.600;4.608;2022-09-17T03:33:08;24.20;58.30
44433;DHT22;30136;50.600;4.608;2022-09-17T03:34:08;24.20;58.30
44433;DHT22;30136;50.600;4.608;2022-09-17T03:35:09;24.30;58.30
44433;DHT22;30136;50.600;4.608;2022-09-17T03:36:10;24.30;58.40
44433;DHT22;30136;50.600;4.608;2022-09-17T03:37:11;24.30;58.40
44433;DHT22;30136;50.600;4.608;2022-09-17T03:38:12;24.30;58.30
44433;DHT22;30136;50.600;4.608;2022-09-17T03:39:13;24.30;58.30
44433;DHT22;30136;50.600;4.608;2022-09-17T03:40:14;24.20;58.20
44433;DHT22;30136;50.600;4.608;2022-09-17T03:41:15;24.20;58.20
44433;DHT22;30136;50.600;4.608;2022-09-17T03:42:16;24.30;58.30
44433;DHT22;30136;50.600;4.608;2022-09-17T03:43:17;24.20;58.30
44433;DHT22;30136;50.600;4.608;2022-09-17T03:44:18;24.20;58.30
44433;DHT22;30136;50.600;4.608;2022-09-17T03:45:20;24.20;58.40
44433;DHT22;30136;50.600;4.608;2022-09-17T03:46:21;24.30;58.40
44433;DHT22;30136;50.600;4.608;2022-09-17T03:47:22;24.30;58.40
44433;DHT22;30136;50.600;4.608;2022-09-17T03:48:23;24.20;58.40
44433;DHT22;30136;50.600;4.608;2022-09-17T03:49:24;24.20;58.30
44433;DHT22;30136;50.600;4.608;2022-09-17T03:50:25;24.20;58.40
44433;DHT22;30136;50.600;4.608;2022-09-17T03:51:26;24.20;58.40
44433;DHT22;30136;50.600;4.608;2022-09-17T03:52:26;24.20;58.40
44433;DHT22;30136;50.600;4.608;2022-09-17T03:53:27;24.20;58.60
44433;DHT22;30136;50.600;4.608;2022-09-17T03:54:28;24.20;58.60
44433;DHT22;30136;50.600;4.608;2022-09-17T03:55:29;24.20;58.40
44433;DHT22;30136;50.600;4.608;2022-09-17T03:56:30;24.20;58.50
44433;DHT22;30136;50.600;4.608;2022-09-17T03:57:31;24.20;58.50
44433;DHT22;30136;50.600;4.608;2022-09-17T03:58:32;24.20;58.50
44433;DHT22;30136;50.600;4.608;2022-09-17T03:59:33;24.20;58.50
44433;DHT22;30136;50.600;4.608;2022-09-17T04:00:35;24.20;58.60
44433;DHT22;30136;50.600;4.608;2022-09-17T04:01:39;24.20;58.50
44433;DHT22;30136;50.600;4.608;2022-09-17T04:02:40;24.20;58.60
44433;DHT22;30136;50.600;4.608;2022-09-17T04:03:40;24.20;58.60
44433;DHT22;30136;50.600;4.608;2022-09-17T04:04:41;24.20;58.60
44433;DHT22;30136;50.600;4.608;2022-09-17T04:05:42;24.20;58.60
44433;DHT22;30136;50.600;4.608;2022-09-17T04:06:43;24.20;58.50
44433;DHT22;30136;50.600;4.608;2022-09-17T04:07:44;24.20;58.60
44433;DHT22;30136;50.600;4.608;2022-09-17T04:08:45;24.20;58.70
44433;DHT22;30136;50.600;4.608;2022-09-17T04:09:46;24.20;58.60
44433;DHT22;30136;50.600;4.608;2022-09-17T04:10:47;24.20;58.50
44433;DHT22;30136;50.600;4.608;2022-09-17T04:11:48;24.20;58.70
44433;DHT22;30136;50.600;4.608;2022-09-17T04:12:49;24.20;58.40
44433;DHT22;30136;50.600;4.608;2022-09-17T04:13:49;24.20;58.50
44433;DHT22;30136;50.600;4.608;2022-09-17T04:14:50;24.20;59.20
44433;DHT22;30136;50.600;4.608;2022-09-17T04:15:51;24.20;58.60
44433;DHT22;30136;50.600;4.608;2022-09-17T04:16:52;24.20;58.60
44433;DHT22;30136;50.600;4.608;2022-09-17T04:17:56;24.20;58.70
44433;DHT22;30136;50.600;4.608;2022-09-17T04:18:57;24.20;58.60
44433;DHT22;30136;50.600;4.608;2022-09-17T04:19:58;24.20;58.60
44433;DHT22;30136;50.600;4.608;2022-09-17T04:20:59;24.20;58.60
44433;DHT22;30136;50.600;4.608;2022-09-17T04:22:00;24.20;58.60
44433;DHT22;30136;50.600;4.608;2022-09-17T04:23:01;24.20;58.70
44433;DHT22;30136;50.600;4.608;2022-09-17T04:24:02;24.20;58.40
44433;DHT22;30136;50.600;4.608;2022-09-17T04:25:03;24.20;58.50
44433;DHT22;30136;50.600;4.608;2022-09-17T04:26:04;24.20;58.60
44433;DHT22;30136;50.600;4.608;2022-09-17T04:27:05;24.20;58.70
44433;DHT22;30136;50.600;4.608;2022-09-17T04:28:06;24.20;58.60
44433;DHT22;30136;50.600;4.608;2022-09-17T04:29:07;24.20;58.50
44433;DHT22;30136;50.600;4.608;2022-09-17T04:30:10;24.20;58.50
44433;DHT22;30136;50.600;4.608;2022-09-17T04:31:11;24.20;58.30
44433;DHT22;30136;50.600;4.608;2022-09-17T04:32:12;24.20;58.50
44433;DHT22;30136;50.600;4.608;2022-09-17T04:33:13;24.20;58.70
44433;DHT22;30136;50.600;4.608;2022-09-17T04:34:14;24.20;58.40
44433;DHT22;30136;50.600;4.608;2022-09-17T04:35:15;24.20;58.30
44433;DHT22;30136;50.600;4.608;2022-09-17T04:36:16;24.20;58.50
44433;DHT22;30136;50.600;4.608;2022-09-17T04:37:17;24.20;58.60
44433;DHT22;30136;50.600;4.608;2022-09-17T04:38:19;24.20;58.50
44433;DHT22;30136;50.600;4.608;2022-09-17T04:39:21;24.20;58.50
44433;DHT22;30136;50.600;4.608;2022-09-17T04:40:23;24.20;58.50
44433;DHT22;30136;50.600;4.608;2022-09-17T04:41:25;24.20;58.70
44433;DHT22;30136;50.600;4.608;2022-09-17T04:42:25;24.20;58.70
44433;DHT22;30136;50.600;4.608;2022-09-17T04:43:26;24.20;58.60
44433;DHT22;30136;50.600;4.608;2022-09-17T04:44:27;24.20;58.60
44433;DHT22;30136;50.600;4.608;2022-09-17T04:45:29;24.20;58.60
44433;DHT22;30136;50.600;4.608;2022-09-17T04:46:32;24.20;58.60
44433;DHT22;30136;50.600;4.608;2022-09-17T04:47:36;24.20;58.70
44433;DHT22;30136;50.600;4.608;2022-09-17T04:48:38;24.20;58.60
44433;DHT22;30136;50.600;4.608;2022-09-17T04:49:39;24.20;58.70
44433;DHT22;30136;50.600;4.608;2022-09-17T04:50:40;24.20;58.70
44433;DHT22;30136;50.600;4.608;2022-09-17T04:51:41;24.20;58.70
44433;DHT22;30136;50.600;4.608;2022-09-17T04:52:43;24.20;58.70
44433;DHT22;30136;50.600;4.608;2022-09-17T04:53:44;24.20;58.70
44433;DHT22;30136;50.600;4.608;2022-09-17T04:54:45;24.20;58.80
44433;DHT22;30136;50.600;4.608;2022-09-17T04:55:46;24.20;58.80
44433;DHT22;30136;50.600;4.608;2022-09-17T04:56:46;24.20;58.60
44433;DHT22;30136;50.600;4.608;2022-09-17T04:57:49;24.20;58.60
44433;DHT22;30136;50.600;4.608;2022-09-17T04:58:50;24.20;58.60
44433;DHT22;30136;50.600;4.608;2022-09-17T04:59:51;24.10;58.60
44433;DHT22;30136;50.600;4.608;2022-09-17T05:00:52;24.20;58.50
44433;DHT22;30136;50.600;4.608;2022-09-17T05:01:53;24.20;58.60
44433;DHT22;30136;50.600;4.608;2022-09-17T05:02:54;24.20;58.70
44433;DHT22;30136;50.600;4.608;2022-09-17T05:03:55;24.20;58.70
44433;DHT22;30136;50.600;4.608;2022-09-17T05:04:56;24.20;58.70
44433;DHT22;30136;50.600;4.608;2022-09-17T05:05:57;24.10;58.60
44433;DHT22;30136;50.600;4.608;2022-09-17T05:06:58;24.20;58.30
44433;DHT22;30136;50.600;4.608;2022-09-17T05:07:59;24.20;58.20
44433;DHT22;30136;50.600;4.608;2022-09-17T05:09:01;24.20;58.10
44433;DHT22;30136;50.600;4.608;2022-09-17T05:10:01;24.20;58.10
44433;DHT22;30136;50.600;4.608;2022-09-17T05:11:03;24.20;58.20
44433;DHT22;30136;50.600;4.608;2022-09-17T05:12:04;24.20;58.20
44433;DHT22;30136;50.600;4.608;2022-09-17T05:13:05;24.20;58.10
44433;DHT22;30136;50.600;4.608;2022-09-17T05:14:06;24.20;58.10
44433;DHT22;30136;50.600;4.608;2022-09-17T05:15:07;24.20;58.10
44433;DHT22;30136;50.600;4.608;2022-09-17T05:16:08;24.20;58.00
44433;DHT22;30136;50.600;4.608;2022-09-17T05:17:09;24.20;58.10
44433;DHT22;30136;50.600;4.608;2022-09-17T05:18:10;24.20;58.10
44433;DHT22;30136;50.600;4.608;2022-09-17T05:19:10;24.20;58.10
44433;DHT22;30136;50.600;4.608;2022-09-17T05:20:13;24.20;58.30
44433;DHT22;30136;50.600;4.608;2022-09-17T05:21:14;24.20;58.10
44433;DHT22;30136;50.600;4.608;2022-09-17T05:22:15;24.20;58.00
44433;DHT22;30136;50.600;4.608;2022-09-17T05:23:16;24.20;58.20
44433;DHT22;30136;50.600;4.608;2022-09-17T05:24:17;24.20;58.30
44433;DHT22;30136;50.600;4.608;2022-09-17T05:25:20;24.20;58.30
44433;DHT22;30136;50.600;4.608;2022-09-17T05:26:24;24.20;58.40
44433;DHT22;30136;50.600;4.608;2022-09-17T05:27:25;24.30;58.30
44433;DHT22;30136;50.600;4.608;2022-09-17T05:28:27;24.20;58.50
44433;DHT22;30136;50.600;4.608;2022-09-17T05:29:28;24.20;58.40
44433;DHT22;30136;50.600;4.608;2022-09-17T05:30:29;24.30;58.50
44433;DHT22;30136;50.600;4.608;2022-09-17T05:31:30;24.30;58.50
44433;DHT22;30136;50.600;4.608;2022-09-17T05:32:30;24.30;58.50
44433;DHT22;30136;50.600;4.608;2022-09-17T05:33:32;24.30;58.80
44433;DHT22;30136;50.600;4.608;2022-09-17T05:34:32;24.30;58.70
44433;DHT22;30136;50.600;4.608;2022-09-17T05:35:34;24.30;58.80
44433;DHT22;30136;50.600;4.608;2022-09-17T05:36:38;24.30;58.80
44433;DHT22;30136;50.600;4.608;2022-09-17T05:37:38;24.30;58.80
44433;DHT22;30136;50.600;4.608;2022-09-17T05:38:39;24.30;58.80
44433;DHT22;30136;50.600;4.608;2022-09-17T05:39:40;24.30;58.80
44433;DHT22;30136;50.600;4.608;2022-09-17T05:40:41;24.30;58.80
44433;DHT22;30136;50.600;4.608;2022-09-17T05:41:42;24.30;58.80
44433;DHT22;30136;50.600;4.608;2022-09-17T05:42:43;24.40;58.90
44433;DHT22;30136;50.600;4.608;2022-09-17T05:43:44;24.40;58.80
44433;DHT22;30136;50.600;4.608;2022-09-17T05:44:45;24.40;58.90
44433;DHT22;30136;50.600;4.608;2022-09-17T05:45:46;24.40;58.90
44433;DHT22;30136;50.600;4.608;2022-09-17T05:46:47;24.40;58.90
44433;DHT22;30136;50.600;4.608;2022-09-17T05:47:47;24.30;58.90
44433;DHT22;30136;50.600;4.608;2022-09-17T05:48:57;24.30;58.90
44433;DHT22;30136;50.600;4.608;2022-09-17T05:49:58;24.40;59.00
44433;DHT22;30136;50.600;4.608;2022-09-17T05:50:59;24.40;58.90
44433;DHT22;30136;50.600;4.608;2022-09-17T05:52:00;24.40;59.00
44433;DHT22;30136;50.600;4.608;2022-09-17T05:53:07;24.40;58.90
44433;DHT22;30136;50.600;4.608;2022-09-17T05:54:10;24.40;58.80
44433;DHT22;30136;50.600;4.608;2022-09-17T05:55:11;24.40;58.80
44433;DHT22;30136;50.600;4.608;2022-09-17T05:56:12;24.40;58.70
44433;DHT22;30136;50.600;4.608;2022-09-17T05:57:13;24.40;58.70
44433;DHT22;30136;50.600;4.608;2022-09-17T05:58:17;24.40;58.60
44433;DHT22;30136;50.600;4.608;2022-09-17T05:59:18;24.40;58.60
44433;DHT22;30136;50.600;4.608;2022-09-17T06:00:19;24.40;58.40
44433;DHT22;30136;50.600;4.608;2022-09-17T06:01:20;24.40;58.40
44433;DHT22;30136;50.600;4.608;2022-09-17T06:02:21;24.40;58.30
44433;DHT22;30136;50.600;4.608;2022-09-17T06:03:22;24.50;58.20
44433;DHT22;30136;50.600;4.608;2022-09-17T06:04:23;24.40;58.20
44433;DHT22;30136;50.600;4.608;2022-09-17T06:05:24;24.50;58.20
44433;DHT22;30136;50.600;4.608;2022-09-17T06:06:27;24.50;58.20
44433;DHT22;30136;50.600;4.608;2022-09-17T06:07:31;24.50;58.20
44433;DHT22;30136;50.600;4.608;2022-09-17T06:08:35;24.40;58.10
44433;DHT22;30136;50.600;4.608;2022-09-17T06:09:36;24.50;58.30
44433;DHT22;30136;50.600;4.608;2022-09-17T06:10:38;24.40;58.20
44433;DHT22;30136;50.600;4.608;2022-09-17T06:11:39;24.40;58.30
44433;DHT22;30136;50.600;4.608;2022-09-17T06:12:40;24.40;58.50
44433;DHT22;30136;50.600;4.608;2022-09-17T06:13:40;24.40;58.50
44433;DHT22;30136;50.600;4.608;2022-09-17T06:14:43;24.40;58.40
44433;DHT22;30136;50.600;4.608;2022-09-17T06:15:53;24.40;58.30
44433;DHT22;30136;50.600;4.608;2022-09-17T06:16:55;24.50;58.40
44433;DHT22;30136;50.600;4.608;2022-09-17T06:17:56;24.50;58.30
44433;DHT22;30136;50.600;4.608;2022-09-17T06:18:57;24.50;58.30
44433;DHT22;30136;50.600;4.608;2022-09-17T06:19:57;24.50;58.30
44433;DHT22;30136;50.600;4.608;2022-09-17T06:21:01;24.50;58.20
44433;DHT22;30136;50.600;4.608;2022-09-17T06:22:03;24.50;58.20
44433;DHT22;30136;50.600;4.608;2022-09-17T06:23:05;24.50;58.10
44433;DHT22;30136;50.600;4.608;2022-09-17T06:24:07;24.50;58.10
44433;DHT22;30136;50.600;4.608;2022-09-17T06:25:09;24.50;58.00
44433;DHT22;30136;50.600;4.608;2022-09-17T06:26:11;24.50;58.00
44433;DHT22;30136;50.600;4.608;2022-09-17T06:27:12;24.50;58.00
44433;DHT22;30136;50.600;4.608;2022-09-17T06:28:13;24.60;58.00
44433;DHT22;30136;50.600;4.608;2022-09-17T06:29:14;24.60;58.00
44433;DHT22;30136;50.600;4.608;2022-09-17T06:30:15;24.60;58.00
44433;DHT22;30136;50.600;4.608;2022-09-17T06:31:16;24.60;58.00
44433;DHT22;30136;50.600;4.608;2022-09-17T06:32:17;24.60;58.00
44433;DHT22;30136;50.600;4.608;2022-09-17T06:33:18;24.60;58.00
44433;DHT22;30136;50.600;4.608;2022-09-17T06:34:19;24.60;58.00
44433;DHT22;30136;50.600;4.608;2022-09-17T06:35:20;24.60;58.00
44433;DHT22;30136;50.600;4.608;2022-09-17T06:36:20;24.60;58.00
44433;DHT22;30136;50.600;4.608;2022-09-17T06:37:29;24.60;58.00
44433;DHT22;30136;50.600;4.608;2022-09-17T06:38:32;24.60;58.10
44433;DHT22;30136;50.600;4.608;2022-09-17T06:39:34;24.60;58.10
44433;DHT22;30136;50.600;4.608;2022-09-17T06:40:36;24.60;58.10
44433;DHT22;30136;50.600;4.608;2022-09-17T06:41:37;24.60;58.10
44433;DHT22;30136;50.600;4.608;2022-09-17T06:42:38;24.60;58.10
44433;DHT22;30136;50.600;4.608;2022-09-17T06:43:39;24.60;58.10
44433;DHT22;30136;50.600;4.608;2022-09-17T06:44:40;24.60;58.10
44433;DHT22;30136;50.600;4.608;2022-09-17T06:45:41;24.60;58.10
44433;DHT22;30136;50.600;4.608;2022-09-17T06:46:42;24.60;58.70
44433;DHT22;30136;50.600;4.608;2022-09-17T06:47:43;24.60;58.20
44433;DHT22;30136;50.600;4.608;2022-09-17T06:48:44;24.60;58.10
44433;DHT22;30136;50.600;4.608;2022-09-17T06:49:45;24.50;58.10
44433;DHT22;30136;50.600;4.608;2022-09-17T06:50:46;24.50;58.20
44433;DHT22;30136;50.600;4.608;2022-09-17T06:51:47;24.50;58.10
44433;DHT22;30136;50.600;4.608;2022-09-17T06:52:52;24.50;58.10
44433;DHT22;30136;50.600;4.608;2022-09-17T06:53:53;24.60;58.20
44433;DHT22;30136;50.600;4.608;2022-09-17T06:54:54;24.50;58.20
44433;DHT22;30136;50.600;4.608;2022-09-17T06:55:57;24.60;58.20
44433;DHT22;30136;50.600;4.608;2022-09-17T06:56:58;24.50;58.20
44433;DHT22;30136;50.600;4.608;2022-09-17T06:57:59;24.50;58.20
44433;DHT22;30136;50.600;4.608;2022-09-17T06:59:00;24.50;58.20
44433;DHT22;30136;50.600;4.608;2022-09-17T07:00:02;24.50;58.20
44433;DHT22;30136;50.600;4.608;2022-09-17T07:01:04;24.50;58.20
44433;DHT22;30136;50.600;4.608;2022-09-17T07:02:05;24.50;58.30
44433;DHT22;30136;50.600;4.608;2022-09-17T07:03:07;24.50;58.20
44433;DHT22;30136;50.600;4.608;2022-09-17T07:04:08;24.50;58.30
44433;DHT22;30136;50.600;4.608;2022-09-17T07:05:09;24.50;58.30
44433;DHT22;30136;50.600;4.608;2022-09-17T07:06:10;24.50;58.40
44433;DHT22;30136;50.600;4.608;2022-09-17T07:07:12;24.50;58.60
44433;DHT22;30136;50.600;4.608;2022-09-17T07:08:13;24.50;58.60
44433;DHT22;30136;50.600;4.608;2022-09-17T07:09:13;24.50;58.60
44433;DHT22;30136;50.600;4.608;2022-09-17T07:10:14;24.50;58.60
44433;DHT22;30136;50.600;4.608;2022-09-17T07:11:18;24.50;58.80
44433;DHT22;30136;50.600;4.608;2022-09-17T07:12:20;24.50;58.80
44433;DHT22;30136;50.600;4.608;2022-09-17T07:13:23;24.50;59.00
44433;DHT22;30136;50.600;4.608;2022-09-17T07:14:24;24.50;58.90
44433;DHT22;30136;50.600;4.608;2022-09-17T07:15:25;24.50;59.40
44433;DHT22;30136;50.600;4.608;2022-09-17T07:16:26;24.50;58.80
44433;DHT22;30136;50.600;4.608;2022-09-17T07:17:28;24.50;58.70
44433;DHT22;30136;50.600;4.608;2022-09-17T07:18:29;24.50;58.70
44433;DHT22;30136;50.600;4.608;2022-09-17T07:19:30;24.50;58.80
44433;DHT22;30136;50.600;4.608;2022-09-17T07:20:31;24.50;58.80
44433;DHT22;30136;50.600;4.608;2022-09-17T07:21:32;24.50;58.90
44433;DHT22;30136;50.600;4.608;2022-09-17T07:22:33;24.50;58.90
44433;DHT22;30136;50.600;4.608;2022-09-17T07:23:35;24.50;58.90
44433;DHT22;30136;50.600;4.608;2022-09-17T07:24:36;24.60;58.80
44433;DHT22;30136;50.600;4.608;2022-09-17T07:25:37;24.50;58.90